Time;durP1;ratioP1;P1;durP2;ratioP2;P2;SDS_P1;SDS_P2;PMS_P1;PMS_P2;Temp;Humidity;BMP_temperature;BMP_pressure;BME280_temperature;BME280_humidity;BME280_pressure;Samples;Min_cycle;Max_cycle;Signal;HPM_P1;HPM_P2
2022/12/22 03:30:52;;;;;;;10.93;2.72;;;;;;;;;;21167103;28;20411;-60
2022/12/22 03:40:57;;;;;;;8.27;2.30;;;;;;;;;;21166175;28;20043;-61
2022/12/22 03:50:59;;;;;;;8.40;2.47;;;;;;;;;;21147819;28;20407;-60
2022/12/22 04:01:07;;;;;;;8.48;2.55;;;;;;;;;;21164167;28;20047;-64
2022/12/22 04:21:36;;;;;;;6.05;2.72;;;;;;;;;;21161949;28;20096;-63
2022/12/22 04:31:39;;;;;;;9.38;2.65;;;;;;;;;;21147175;28;20104;-62
2022/12/22 04:41:45;;;;;;;7.13;2.28;;;;;;;;;;21164346;28;20043;-64
2022/12/22 04:52:06;;;;;;;7.45;2.25;;;;;;;;;;21161397;28;20130;-60
2022/12/22 05:02:09;;;;;;;8.27;2.33;;;;;;;;;;21161186;28;20056;-60
2022/12/22 05:22:39;;;;;;;6.45;2.35;;;;;;;;;;21162358;28;20063;-60
2022/12/22 05:32:43;;;;;;;9.65;2.38;;;;;;;;;;21161509;28;20102;-60
2022/12/22 05:42:46;;;;;;;6.63;2.38;;;;;;;;;;21175628;28;20066;-60
2022/12/22 05:52:50;;;;;;;7.90;2.45;;;;;;;;;;21174490;28;20485;-59
2022/12/22 06:02:52;;;;;;;8.48;2.80;;;;;;;;;;21173124;28;20047;-60
2022/12/22 06:12:53;;;;;;;7.18;2.80;;;;;;;;;;21175367;28;20083;-58
2022/12/22 06:22:56;;;;;;;7.25;2.83;;;;;;;;;;21171834;28;20044;-61
2022/12/22 06:32:59;;;;;;;7.15;3.20;;;;;;;;;;21170225;28;20450;-59
2022/12/22 06:43:07;;;;;;;9.48;3.75;;;;;;;;;;21171592;28;20503;-61
2022/12/22 06:53:08;;;;;;;5.45;2.75;;;;;;;;;;21168665;28;20507;-60
2022/12/22 07:03:10;;;;;;;6.35;3.22;;;;;;;;;;21167826;28;20059;-60
2022/12/22 07:13:20;;;;;;;8.98;3.95;;;;;;;;;;21167162;28;20122;-59
2022/12/22 07:23:21;;;;;;;6.03;3.05;;;;;;;;;;21166632;28;20053;-60
2022/12/22 07:33:22;;;;;;;6.90;3.22;;;;;;;;;;21147329;28;20050;-59
2022/12/22 07:43:23;;;;;;;8.07;3.20;;;;;;;;;;21164878;28;20054;-59
2022/12/22 07:53:25;;;;;;;3.58;2.40;;;;;;;;;;21163924;28;20124;-59
2022/12/22 08:03:27;;;;;;;5.70;2.85;;;;;;;;;;21162372;28;20446;-60
2022/12/22 08:13:29;;;;;;;8.73;3.35;;;;;;;;;;21163575;28;20480;-59
2022/12/22 08:23:32;;;;;;;8.35;4.07;;;;;;;;;;21162316;28;20534;-59
2022/12/22 08:33:34;;;;;;;8.75;4.53;;;;;;;;;;21162793;28;20079;-59
2022/12/22 08:43:36;;;;;;;12.80;6.38;;;;;;;;;;21162416;28;20047;-59
2022/12/22 08:53:38;;;;;;;18.08;7.95;;;;;;;;;;21162341;28;20051;-59
2022/12/22 09:03:40;;;;;;;11.85;6.75;;;;;;;;;;21161434;28;20056;-58
2022/12/22 09:13:43;;;;;;;9.35;4.38;;;;;;;;;;21172234;28;20075;-59
2022/12/22 09:23:45;;;;;;;9.20;5.25;;;;;;;;;;21175897;28;20150;-59
2022/12/22 09:33:47;;;;;;;9.27;4.20;;;;;;;;;;21175744;28;20471;-58
2022/12/22 09:43:50;;;;;;;7.40;4.15;;;;;;;;;;21175334;28;20050;-58
2022/12/22 09:53:53;;;;;;;6.85;3.10;;;;;;;;;;21173756;28;20051;-59
2022/12/22 10:04:05;;;;;;;5.43;2.90;;;;;;;;;;21173087;28;20055;-59
2022/12/22 10:14:09;;;;;;;4.78;2.63;;;;;;;;;;21172825;28;20054;-60
2022/12/22 10:24:25;;;;;;;3.30;2.00;;;;;;;;;;21152373;28;20050;-63
2022/12/22 10:34:27;;;;;;;4.10;2.20;;;;;;;;;;21170906;28;20075;-58
2022/12/22 10:44:31;;;;;;;5.40;2.67;;;;;;;;;;21170618;28;20385;-60
2022/12/22 10:54:34;;;;;;;4.43;2.10;;;;;;;;;;21167809;28;20087;-61
2022/12/22 11:04:37;;;;;;;4.70;2.10;;;;;;;;;;21167867;28;20048;-60
2022/12/22 11:14:49;;;;;;;4.75;2.45;;;;;;;;;;21170138;28;20054;-58
2022/12/22 11:25:11;;;;;;;3.28;1.30;;;;;;;;;;21167186;28;20411;-59
2022/12/22 11:35:22;;;;;;;7.10;1.70;;;;;;;;;;21165511;28;20066;-58
2022/12/22 11:45:38;;;;;;;3.92;1.52;;;;;;;;;;21165113;28;20079;-58
2022/12/22 11:55:44;;;;;;;4.43;1.40;;;;;;;;;;21164439;28;20047;-58
2022/12/22 12:06:01;;;;;;;7.47;2.25;;;;;;;;;;21164291;28;20051;-59
2022/12/22 12:16:09;;;;;;;2.63;1.20;;;;;;;;;;21163303;28;20047;-60
2022/12/22 12:26:14;;;;;;;3.15;1.02;;;;;;;;;;21163889;28;20051;-58
2022/12/22 12:36:34;;;;;;;4.53;0.93;;;;;;;;;;21162739;28;20055;-59
2022/12/22 12:46:44;;;;;;;6.47;1.20;;;;;;;;;;21151350;28;20048;-60
2022/12/22 12:56:59;;;;;;;4.15;1.45;;;;;;;;;;21178812;28;20075;-58
2022/12/22 13:07:02;;;;;;;3.83;1.42;;;;;;;;;;21178454;28;20082;-59
2022/12/22 13:17:23;;;;;;;4.90;1.25;;;;;;;;;;21176996;28;20078;-59
2022/12/22 13:27:26;;;;;;;2.60;1.00;;;;;;;;;;21178481;28;20086;-58
2022/12/22 13:37:28;;;;;;;2.50;0.95;;;;;;;;;;21159647;28;20054;-58
2022/12/22 13:47:31;;;;;;;3.65;1.27;;;;;;;;;;21175070;28;20086;-58
2022/12/22 13:57:35;;;;;;;3.60;1.50;;;;;;;;;;21172789;28;20417;-58
2022/12/22 14:07:37;;;;;;;4.95;2.70;;;;;;;;;;21172684;28;20404;-59
2022/12/22 14:17:39;;;;;;;2.78;0.95;;;;;;;;;;21172498;28;20086;-58
2022/12/22 14:27:44;;;;;;;2.95;1.38;;;;;;;;;;21171735;28;20104;-59
2022/12/22 14:37:46;;;;;;;5.05;1.08;;;;;;;;;;21170781;28;20054;-58
2022/12/22 14:47:48;;;;;;;3.45;1.08;;;;;;;;;;21169403;28;20048;-58
2022/12/22 14:57:56;;;;;;;2.72;1.15;;;;;;;;;;21168036;28;20097;-57
2022/12/22 15:07:59;;;;;;;2.72;1.38;;;;;;;;;;21166981;28;20058;-60
2022/12/22 15:18:00;;;;;;;1.98;0.77;;;;;;;;;;21167555;28;20409;-58
2022/12/22 15:28:03;;;;;;;4.15;1.00;;;;;;;;;;21165998;28;20433;-58
2022/12/22 15:38:11;;;;;;;5.68;0.88;;;;;;;;;;21165312;28;20260;-58
2022/12/22 15:48:15;;;;;;;2.95;0.70;;;;;;;;;;21163838;28;20054;-60
2022/12/22 15:58:19;;;;;;;1.50;0.85;;;;;;;;;;21162748;28;20532;-59
2022/12/22 16:08:30;;;;;;;3.10;0.80;;;;;;;;;;21163744;28;20207;-60
2022/12/22 16:18:34;;;;;;;10.25;1.75;;;;;;;;;;21163158;28;20047;-59
2022/12/22 16:28:37;;;;;;;2.17;1.40;;;;;;;;;;21163502;28;20474;-60
2022/12/22 16:38:40;;;;;;;1.73;0.82;;;;;;;;;;21161210;28;20143;-59
2022/12/22 16:48:46;;;;;;;3.17;1.77;;;;;;;;;;21160645;28;20086;-60
2022/12/22 16:58:48;;;;;;;2.55;0.90;;;;;;;;;;21159736;28;20092;-60
2022/12/22 17:08:51;;;;;;;2.42;1.15;;;;;;;;;;21160244;28;20416;-59
2022/12/22 17:18:54;;;;;;;1.92;0.90;;;;;;;;;;21159187;28;20131;-56
2022/12/22 17:28:58;;;;;;;2.00;1.00;;;;;;;;;;21161418;28;20055;-58
2022/12/22 17:39:00;;;;;;;1.90;0.90;;;;;;;;;;21173816;28;20091;-57
2022/12/22 17:49:03;;;;;;;3.00;1.10;;;;;;;;;;21174080;28;20185;-59
2022/12/22 17:59:10;;;;;;;2.50;0.90;;;;;;;;;;21172872;28;20472;-58
2022/12/22 18:09:21;;;;;;;1.42;0.77;;;;;;;;;;21172625;28;20051;-59
2022/12/22 18:19:23;;;;;;;4.97;1.67;;;;;;;;;;21171894;28;20043;-58
2022/12/22 18:29:25;;;;;;;4.30;1.73;;;;;;;;;;21171317;28;20060;-64
2022/12/22 18:39:27;;;;;;;5.25;1.98;;;;;;;;;;21150464;28;20127;-57
2022/12/22 18:49:29;;;;;;;11.82;5.22;;;;;;;;;;21168578;28;20470;-57
2022/12/22 18:59:31;;;;;;;4.53;2.28;;;;;;;;;;21168145;28;20055;-59
2022/12/22 19:09:33;;;;;;;4.38;2.00;;;;;;;;;;21167341;28;20048;-58
2022/12/22 19:19:35;;;;;;;4.10;1.65;;;;;;;;;;21167037;28;20385;-58
2022/12/22 19:29:37;;;;;;;2.85;1.20;;;;;;;;;;21165385;28;20069;-60
2022/12/22 19:39:39;;;;;;;4.28;1.85;;;;;;;;;;21165028;28;20039;-65
2022/12/22 19:49:41;;;;;;;3.40;1.75;;;;;;;;;;21165021;28;20479;-59
2022/12/22 19:59:48;;;;;;;3.63;2.15;;;;;;;;;;21162913;28;20563;-59
2022/12/22 20:09:50;;;;;;;4.45;2.53;;;;;;;;;;21163597;28;20052;-59
2022/12/22 20:19:52;;;;;;;4.93;3.17;;;;;;;;;;21162751;28;20089;-59
2022/12/22 20:29:55;;;;;;;5.00;3.05;;;;;;;;;;21161434;28;20502;-57
2022/12/22 20:39:57;;;;;;;4.65;3.17;;;;;;;;;;21162311;28;20050;-59
2022/12/22 20:50:00;;;;;;;6.72;3.40;;;;;;;;;;21160999;28;20098;-59
2022/12/22 21:00:02;;;;;;;6.60;3.70;;;;;;;;;;21161317;28;20647;-60
2022/12/22 21:10:04;;;;;;;6.78;4.00;;;;;;;;;;21153697;28;20479;-59
2022/12/22 21:20:12;;;;;;;10.95;6.00;;;;;;;;;;21175692;28;20058;-60
2022/12/22 21:30:15;;;;;;;10.02;6.07;;;;;;;;;;21176010;28;20051;-58
2022/12/22 21:40:18;;;;;;;7.95;5.03;;;;;;;;;;21173995;28;20139;-59
2022/12/22 21:50:22;;;;;;;10.50;6.53;;;;;;;;;;21173773;28;20051;-59
2022/12/22 22:00:24;;;;;;;11.77;6.35;;;;;;;;;;21154450;28;20052;-62
2022/12/22 22:10:28;;;;;;;9.35;5.47;;;;;;;;;;21172929;28;20056;-63
2022/12/22 22:20:32;;;;;;;9.85;5.32;;;;;;;;;;21171149;28;20189;-60
2022/12/22 22:30:39;;;;;;;6.78;4.88;;;;;;;;;;21171131;28;20415;-58
2022/12/22 22:40:43;;;;;;;4.55;3.17;;;;;;;;;;21169888;28;20044;-60
2022/12/22 22:50:45;;;;;;;6.72;2.92;;;;;;;;;;21133843;28;20051;-60
2022/12/22 23:00:48;;;;;;;7.07;2.90;;;;;;;;;;21234535;27;20111;-58
2022/12/22 23:10:51;;;;;;;6.13;2.97;;;;;;;;;;21251438;27;20047;-65
2022/12/22 23:21:04;;;;;;;6.82;3.33;;;;;;;;;;21251407;27;20054;-62
2022/12/22 23:31:09;;;;;;;5.45;3.25;;;;;;;;;;21250851;27;20098;-59
2022/12/22 23:41:12;;;;;;;5.45;3.28;;;;;;;;;;21251181;27;20491;-59
2022/12/22 23:51:14;;;;;;;11.93;6.93;;;;;;;;;;21250122;27;20069;-59
